createdAt,value
2023-04-24T00:00:13.465Z,14.80
2023-04-24T00:02:41.231Z,14.80
2023-04-24T00:05:10.130Z,14.80
2023-04-24T00:07:37.144Z,14.80
2023-04-24T00:10:04.376Z,14.80
2023-04-24T00:12:31.940Z,14.80
2023-04-24T00:14:58.930Z,14.80
2023-04-24T00:17:26.112Z,14.70
2023-04-24T00:19:59.420Z,14.70
2023-04-24T00:22:27.741Z,14.70
2023-04-24T00:24:55.531Z,14.70
2023-04-24T00:27:22.616Z,14.70
2023-04-24T00:29:49.698Z,14.70
2023-04-24T00:32:16.908Z,14.70
2023-04-24T00:34:43.997Z,14.60
2023-04-24T00:37:11.029Z,14.60
2023-04-24T00:39:38.135Z,14.60
2023-04-24T00:42:07.460Z,14.60
2023-04-24T00:44:36.000Z,14.50
2023-04-24T00:47:03.091Z,14.50
2023-04-24T00:49:30.107Z,14.40
2023-04-24T00:51:57.969Z,14.40
2023-04-24T00:54:24.937Z,14.40
2023-04-24T00:56:52.509Z,14.30
2023-04-24T00:59:19.749Z,14.30
2023-04-24T01:01:47.648Z,14.30
2023-04-24T01:04:15.356Z,14.20
2023-04-24T01:06:44.194Z,14.10
2023-04-24T01:09:13.015Z,14.00
2023-04-24T01:11:41.841Z,14.00
2023-04-24T01:14:08.930Z,13.90
2023-04-24T01:16:37.080Z,13.80
2023-04-24T01:19:04.174Z,13.70
2023-04-24T01:21:34.726Z,13.70
2023-04-24T01:24:01.799Z,13.60
2023-04-24T01:26:28.803Z,13.60
2023-04-24T01:28:55.899Z,13.40
2023-04-24T01:31:23.057Z,13.30
2023-04-24T01:33:51.099Z,13.20
2023-04-24T01:36:18.131Z,13.10
2023-04-24T01:38:45.463Z,13.10
2023-04-24T01:41:12.522Z,12.90
2023-04-24T01:43:39.751Z,12.90
2023-04-24T01:46:07.543Z,12.80
2023-04-24T01:48:35.179Z,12.70
2023-04-24T01:51:02.202Z,12.60
2023-04-24T01:53:29.229Z,12.50
2023-04-24T01:55:56.313Z,12.40
2023-04-24T01:58:24.379Z,12.30
2023-04-24T02:00:51.453Z,12.20
2023-04-24T02:03:18.622Z,12.20
2023-04-24T02:05:46.449Z,12.10
2023-04-24T02:08:13.429Z,12.10
2023-04-24T02:10:40.400Z,12.10
2023-04-24T02:13:07.342Z,12.00
2023-04-24T02:15:34.358Z,12.00
2023-04-24T02:18:01.455Z,12.00
2023-04-24T02:20:28.587Z,11.90
2023-04-24T02:22:56.140Z,11.90
2023-04-24T02:25:23.395Z,11.80
2023-04-24T02:27:50.349Z,11.80
2023-04-24T02:30:17.329Z,11.80
2023-04-24T02:32:44.379Z,11.70
2023-04-24T02:35:11.534Z,11.70
2023-04-24T02:37:38.657Z,11.70
2023-04-24T02:40:06.993Z,11.70
2023-04-24T02:42:33.989Z,11.60
2023-04-24T02:45:01.097Z,11.50
2023-04-24T02:47:28.151Z,11.50
2023-04-24T02:49:55.185Z,11.50
2023-04-24T02:52:22.173Z,11.50
2023-04-24T02:54:49.186Z,11.50
2023-04-24T02:57:16.313Z,11.40
2023-04-24T02:59:43.448Z,11.40
2023-04-24T03:02:10.727Z,11.40
2023-04-24T03:04:38.187Z,11.40
2023-04-24T03:07:05.740Z,11.40
2023-04-24T03:09:32.840Z,11.40
2023-04-24T03:11:59.798Z,11.40
2023-04-24T03:14:26.876Z,11.40
2023-04-24T03:16:53.854Z,11.30
2023-04-24T03:19:20.863Z,11.30
2023-04-24T03:21:47.868Z,11.30
2023-04-24T03:24:14.847Z,11.30
2023-04-24T03:26:41.931Z,11.30
2023-04-24T03:29:08.976Z,11.20
2023-04-24T03:31:35.984Z,11.20
2023-04-24T03:34:02.974Z,11.20
2023-04-24T03:36:29.943Z,11.20
2023-04-24T03:38:56.926Z,11.10
2023-04-24T03:41:23.980Z,11.10
2023-04-24T03:43:50.998Z,11.10
2023-04-24T03:46:18.123Z,11.00
2023-04-24T03:48:45.275Z,11.00
2023-04-24T03:51:12.347Z,11.00
2023-04-24T03:53:39.421Z,11.00
2023-04-24T03:56:06.565Z,11.00
2023-04-24T03:58:33.526Z,11.00
2023-04-24T04:01:01.370Z,11.00
2023-04-24T04:03:28.536Z,11.00
2023-04-24T04:05:55.728Z,11.10
2023-04-24T04:08:22.754Z,11.10
2023-04-24T04:10:49.843Z,11.10
2023-04-24T04:13:16.825Z,11.20
2023-04-24T04:15:43.972Z,11.20
2023-04-24T04:18:11.138Z,11.30
2023-04-24T04:20:38.091Z,11.30
2023-04-24T04:23:05.064Z,11.30
2023-04-24T04:25:32.252Z,11.40
2023-04-24T04:28:00.748Z,11.50
2023-04-24T04:30:27.810Z,11.60
2023-04-24T04:32:54.782Z,11.60
2023-04-24T04:35:23.040Z,11.60
2023-04-24T04:37:50.467Z,11.70
2023-04-24T04:40:17.425Z,11.70
2023-04-24T04:42:47.166Z,11.70
2023-04-24T04:45:14.116Z,11.80
2023-04-24T04:47:41.246Z,11.80
2023-04-24T04:50:08.615Z,11.80
2023-04-24T04:52:35.594Z,11.80
2023-04-24T04:55:02.929Z,11.70
2023-04-24T04:57:29.954Z,11.80
2023-04-24T04:59:57.052Z,11.80
2023-04-24T05:02:24.055Z,11.70
2023-04-24T05:04:51.544Z,11.70
2023-04-24T05:07:19.529Z,11.80
2023-04-24T05:09:46.600Z,11.90
2023-04-24T05:12:13.598Z,12.10
2023-04-24T05:14:40.754Z,12.10
2023-04-24T05:17:07.839Z,12.20
2023-04-24T05:19:37.123Z,12.20
2023-04-24T05:22:05.368Z,12.10
2023-04-24T05:24:32.433Z,12.10
2023-04-24T05:27:00.097Z,12.10
2023-04-24T05:29:27.666Z,12.10
2023-04-24T05:31:54.855Z,12.10
2023-04-24T05:34:22.034Z,12.10
2023-04-24T05:36:49.484Z,12.00
2023-04-24T05:39:16.489Z,12.00
2023-04-24T05:41:43.579Z,12.20
2023-04-24T05:44:10.697Z,12.30
2023-04-24T05:46:37.759Z,12.40
2023-04-24T05:49:04.849Z,12.50
2023-04-24T05:51:33.060Z,12.60
2023-04-24T05:54:00.100Z,12.80
2023-04-24T05:56:27.192Z,12.90
2023-04-24T05:58:54.351Z,13.10
2023-04-24T06:01:21.910Z,13.20
2023-04-24T06:03:49.132Z,13.30
2023-04-24T06:06:16.894Z,13.50
2023-04-24T06:08:45.307Z,13.60
2023-04-24T06:11:12.320Z,13.60
2023-04-24T06:13:39.326Z,13.70
2023-04-24T06:16:06.812Z,13.80
2023-04-24T06:18:33.994Z,13.90
2023-04-24T06:21:00.947Z,14.00
2023-04-24T06:23:28.079Z,14.10
2023-04-24T06:25:55.193Z,14.20
2023-04-24T06:28:22.224Z,14.40
2023-04-24T06:30:49.190Z,14.50
2023-04-24T06:33:21.241Z,14.70
2023-04-24T06:35:48.929Z,14.70
2023-04-24T06:38:17.518Z,14.80
2023-04-24T06:40:44.892Z,14.80
2023-04-24T06:43:12.121Z,14.90
2023-04-24T06:45:41.109Z,14.90
2023-04-24T06:48:08.473Z,15.00
2023-04-24T06:50:36.405Z,15.00
2023-04-24T06:53:03.434Z,15.10
2023-04-24T06:55:30.632Z,15.10
2023-04-24T06:57:57.719Z,15.20
2023-04-24T07:00:25.618Z,15.30
2023-04-24T07:02:52.830Z,15.30
2023-04-24T07:05:23.048Z,15.40
2023-04-24T07:07:51.014Z,15.50
2023-04-24T07:10:19.373Z,15.50
2023-04-24T07:12:46.582Z,15.50
2023-04-24T07:15:13.660Z,15.60
2023-04-24T07:17:44.670Z,15.60
2023-04-24T07:20:12.761Z,15.60
2023-04-24T07:22:40.134Z,15.60
2023-04-24T07:25:08.094Z,15.60
2023-04-24T07:27:37.400Z,15.60
2023-04-24T07:30:05.924Z,15.70
2023-04-24T07:32:33.055Z,15.70
2023-04-24T07:35:00.025Z,15.70
2023-04-24T07:37:27.630Z,15.80
2023-04-24T07:39:54.624Z,15.90
2023-04-24T07:42:21.625Z,15.90
2023-04-24T07:44:48.927Z,15.90
2023-04-24T07:47:18.371Z,16.00
2023-04-24T07:49:45.529Z,16.10
2023-04-24T07:52:12.904Z,16.00
2023-04-24T07:54:39.958Z,16.10
2023-04-24T07:57:08.105Z,16.00
2023-04-24T07:59:35.691Z,16.00
2023-04-24T08:02:02.907Z,16.00
2023-04-24T08:04:30.170Z,16.00
2023-04-24T08:06:57.390Z,16.00
2023-04-24T08:09:26.399Z,15.90
2023-04-24T08:11:55.190Z,15.90
2023-04-24T08:14:22.302Z,15.90
2023-04-24T08:16:49.323Z,15.90
2023-04-24T08:19:16.490Z,15.90
2023-04-24T08:21:43.606Z,15.80
2023-04-24T08:24:10.597Z,15.80
2023-04-24T08:26:37.698Z,15.70
2023-04-24T08:29:04.840Z,15.70
2023-04-24T08:31:31.844Z,15.70
2023-04-24T08:33:58.944Z,15.70
2023-04-24T08:36:35.947Z,15.70
2023-04-24T08:39:07.038Z,15.70
2023-04-24T08:41:35.761Z,15.70
2023-04-24T08:44:04.068Z,15.60
2023-04-24T08:46:32.058Z,15.60
2023-04-24T08:49:00.645Z,15.60
2023-04-24T08:51:29.077Z,15.50
2023-04-24T08:53:56.366Z,15.50
2023-04-24T08:56:24.959Z,15.50
2023-04-24T08:58:55.992Z,15.50
2023-04-24T09:01:26.500Z,15.40
2023-04-24T09:03:57.747Z,15.40
2023-04-24T09:06:27.495Z,15.30
2023-04-24T09:08:57.605Z,15.20
2023-04-24T09:11:26.617Z,15.10
2023-04-24T09:13:56.136Z,15.00
2023-04-24T09:16:25.595Z,15.00
2023-04-24T09:18:53.228Z,14.90
2023-04-24T09:21:27.325Z,14.90
2023-04-24T09:24:04.105Z,14.90
2023-04-24T09:26:35.192Z,14.90
2023-04-24T09:29:02.912Z,14.80
2023-04-24T09:31:31.050Z,14.70
2023-04-24T09:34:09.038Z,14.60
2023-04-24T09:36:44.196Z,14.60
2023-04-24T09:39:21.004Z,14.50
2023-04-24T09:41:59.833Z,14.40
2023-04-24T09:44:29.444Z,14.40
2023-04-24T09:46:58.287Z,14.30
2023-04-24T09:49:27.737Z,14.30
2023-04-24T09:52:08.540Z,14.20
2023-04-24T09:54:38.095Z,14.20
2023-04-24T09:57:05.553Z,14.20
2023-04-24T09:59:33.394Z,14.20
2023-04-24T10:02:01.558Z,14.10
2023-04-24T10:04:30.385Z,14.20
2023-04-24T10:06:58.515Z,14.20
2023-04-24T10:09:27.787Z,14.20
2023-04-24T10:11:56.305Z,14.20
2023-04-24T10:14:26.969Z,14.20
2023-04-24T10:16:59.006Z,14.10
2023-04-24T10:19:27.772Z,14.10
2023-04-24T10:21:56.910Z,14.10
2023-04-24T10:24:23.984Z,14.10
2023-04-24T10:26:50.978Z,14.10
2023-04-24T10:29:20.252Z,14.10
2023-04-24T10:31:48.107Z,14.10
2023-04-24T10:34:19.032Z,14.10
2023-04-24T10:36:58.151Z,14.10
2023-04-24T10:39:27.442Z,14.10
2023-04-24T10:41:59.094Z,14.10
2023-04-24T10:44:27.867Z,14.10
2023-04-24T10:46:57.254Z,14.10
2023-04-24T10:49:32.552Z,14.10
2023-04-24T10:52:06.707Z,14.10
2023-04-24T10:54:42.093Z,14.10
2023-04-24T10:57:23.954Z,14.10
2023-04-24T10:59:53.378Z,14.10
2023-04-24T11:02:38.720Z,14.10
2023-04-24T11:05:06.483Z,14.10
2023-04-24T11:08:11.774Z,14.10
2023-04-24T11:10:57.613Z,14.10
2023-04-24T11:13:26.988Z,14.20
2023-04-24T11:16:16.298Z,14.20
2023-04-24T11:18:51.951Z,14.30
2023-04-24T11:21:19.403Z,14.30
2023-04-24T11:23:48.088Z,14.30
2023-04-24T11:26:20.266Z,14.30
2023-04-24T11:28:51.886Z,14.20
2023-04-24T11:31:38.627Z,14.10
2023-04-24T11:34:15.039Z,14.00
2023-04-24T11:36:45.177Z,13.90
2023-04-24T11:39:12.753Z,13.70
2023-04-24T11:41:39.980Z,13.80
2023-04-24T11:44:11.515Z,13.80
2023-04-24T11:46:41.501Z,14.00
2023-04-24T11:49:09.521Z,14.10
2023-04-24T11:51:51.446Z,14.30
2023-04-24T11:54:20.913Z,14.40
2023-04-24T11:56:48.657Z,14.60
2023-04-24T11:59:16.143Z,14.90
2023-04-24T12:01:50.163Z,15.00
2023-04-24T12:04:19.578Z,15.20
2023-04-24T12:07:10.006Z,15.40
2023-04-24T12:09:44.051Z,15.60
2023-04-24T12:12:13.484Z,15.70
2023-04-24T12:14:51.694Z,15.90
2023-04-24T12:17:18.807Z,16.00
2023-04-24T12:19:49.779Z,16.10
2023-04-24T12:22:17.018Z,16.20
2023-04-24T12:25:06.452Z,16.40
2023-04-24T12:27:35.283Z,16.50
2023-04-24T12:30:10.910Z,16.70
2023-04-24T12:32:43.591Z,16.90
2023-04-24T12:35:10.782Z,16.80
2023-04-24T12:37:38.038Z,16.80
2023-04-24T12:40:13.232Z,16.70
2023-04-24T12:42:52.214Z,16.70
2023-04-24T12:45:20.398Z,16.70
2023-04-24T12:47:47.886Z,16.70
2023-04-24T12:50:16.726Z,16.70
2023-04-24T12:52:46.691Z,16.90
2023-04-24T12:55:13.809Z,17.10
2023-04-24T12:57:41.611Z,17.20
2023-04-24T13:00:10.828Z,17.40
2023-04-24T13:02:38.175Z,17.50
2023-04-24T13:05:05.753Z,17.60
2023-04-24T13:07:32.812Z,17.60
2023-04-24T13:09:59.914Z,17.50
2023-04-24T13:12:27.805Z,17.50
2023-04-24T13:14:55.102Z,17.50
2023-04-24T13:17:24.465Z,17.50
2023-04-24T13:19:52.967Z,17.30
2023-04-24T13:22:20.051Z,17.20
2023-04-24T13:24:49.883Z,17.20
2023-04-24T13:27:18.137Z,17.20
2023-04-24T13:29:45.857Z,17.10
2023-04-24T13:32:13.107Z,17.10
2023-04-24T13:34:40.281Z,17.00
2023-04-24T13:37:07.588Z,17.00
2023-04-24T13:39:34.702Z,16.80
2023-04-24T13:42:04.391Z,16.70
2023-04-24T13:44:32.226Z,16.50
2023-04-24T13:46:59.952Z,16.30
2023-04-24T13:49:27.650Z,16.10
2023-04-24T13:51:56.665Z,16.00
2023-04-24T13:54:27.016Z,15.80
2023-04-24T13:56:54.910Z,15.70
2023-04-24T13:59:24.618Z,15.60
2023-04-24T14:01:51.800Z,15.50
2023-04-24T14:04:19.001Z,15.50
2023-04-24T14:06:46.284Z,15.50
2023-04-24T14:09:14.186Z,15.60
2023-04-24T14:11:41.996Z,15.70
2023-04-24T14:14:09.549Z,15.80
2023-04-24T14:16:36.784Z,15.90
2023-04-24T14:19:03.875Z,16.00
2023-04-24T14:21:31.840Z,16.00
2023-04-24T14:23:58.886Z,16.00
2023-04-24T14:26:26.136Z,16.10
2023-04-24T14:29:03.766Z,16.20
2023-04-24T14:31:38.740Z,16.30
2023-04-24T14:34:05.877Z,16.40
2023-04-24T14:36:32.950Z,16.50
2023-04-24T14:38:59.992Z,16.50
2023-04-24T14:41:27.003Z,16.50
2023-04-24T14:43:54.057Z,16.50
2023-04-24T14:46:21.568Z,16.50
2023-04-24T14:48:48.575Z,16.50
2023-04-24T14:51:15.689Z,16.60
2023-04-24T14:53:42.958Z,16.60
2023-04-24T14:56:10.240Z,16.70
2023-04-24T14:58:37.252Z,16.70
2023-04-24T15:01:04.263Z,16.60
2023-04-24T15:03:32.429Z,16.60
2023-04-24T15:05:59.744Z,16.60
2023-04-24T15:08:26.802Z,16.60
2023-04-24T15:10:53.980Z,16.50
2023-04-24T15:13:21.165Z,16.40
2023-04-24T15:15:49.050Z,16.30
2023-04-24T15:18:16.131Z,16.20
2023-04-24T15:20:43.238Z,16.20
2023-04-24T15:23:11.212Z,16.10
2023-04-24T15:25:39.206Z,16.00
2023-04-24T15:28:07.319Z,15.90
2023-04-24T15:30:34.553Z,15.70
2023-04-24T15:33:05.587Z,15.40
2023-04-24T15:35:32.677Z,15.10
2023-04-24T15:37:59.722Z,14.80
2023-04-24T15:40:27.348Z,14.50
2023-04-24T15:42:54.498Z,14.20
2023-04-24T15:45:21.907Z,14.00
2023-04-24T15:47:49.120Z,13.90
2023-04-24T15:50:17.253Z,13.70
2023-04-24T15:52:44.627Z,13.70
2023-04-24T15:55:12.620Z,13.60
2023-04-24T15:57:40.246Z,13.60
2023-04-24T16:00:07.850Z,13.50
2023-04-24T16:02:35.244Z,13.50
2023-04-24T16:05:02.441Z,13.40
2023-04-24T16:07:29.689Z,13.40
2023-04-24T16:09:56.820Z,13.40
2023-04-24T16:12:27.903Z,13.40
2023-04-24T16:14:55.339Z,13.40
2023-04-24T16:17:22.416Z,13.40
2023-04-24T16:19:49.447Z,13.40
2023-04-24T16:22:16.773Z,13.40
2023-04-24T16:24:45.048Z,13.40
2023-04-24T16:27:12.137Z,13.40
2023-04-24T16:29:39.273Z,13.40
2023-04-24T16:32:06.201Z,13.40
2023-04-24T16:34:33.255Z,13.40
2023-04-24T16:37:00.839Z,13.40
2023-04-24T16:39:28.198Z,13.40
2023-04-24T16:41:56.742Z,13.40
2023-04-24T16:44:25.600Z,13.30
2023-04-24T16:46:52.649Z,13.30
2023-04-24T16:49:20.342Z,13.30
2023-04-24T16:51:47.457Z,13.20
2023-04-24T16:54:14.511Z,13.20
2023-04-24T16:56:41.881Z,13.10
2023-04-24T16:59:09.005Z,13.10
2023-04-24T17:01:36.535Z,13.00
2023-04-24T17:04:03.922Z,13.00
2023-04-24T17:06:32.383Z,13.00
2023-04-24T17:09:00.862Z,12.90
2023-04-24T17:11:29.886Z,12.90
2023-04-24T17:14:00.036Z,12.90
2023-04-24T17:16:27.935Z,12.80
2023-04-24T17:18:56.059Z,12.80
2023-04-24T17:21:25.093Z,12.70
2023-04-24T17:23:52.308Z,12.60
2023-04-24T17:26:19.380Z,12.60
2023-04-24T17:28:47.298Z,12.50
2023-04-24T17:31:16.209Z,12.50
2023-04-24T17:33:44.065Z,12.50
2023-04-24T17:36:14.493Z,12.50
2023-04-24T17:38:42.605Z,12.40
2023-04-24T17:41:11.363Z,12.40
2023-04-24T17:43:39.232Z,12.30
2023-04-24T17:46:08.457Z,12.30
2023-04-24T17:48:36.521Z,12.30
2023-04-24T17:51:05.885Z,12.30
2023-04-24T17:53:33.771Z,12.20
2023-04-24T17:56:03.834Z,12.20
2023-04-24T17:58:32.114Z,12.20
2023-04-24T18:00:59.697Z,12.20
2023-04-24T18:03:27.490Z,12.20
2023-04-24T18:05:55.906Z,12.20
2023-04-24T18:08:23.690Z,12.20
2023-04-24T18:10:54.735Z,12.20
2023-04-24T18:13:21.932Z,12.20
2023-04-24T18:15:49.552Z,12.20
2023-04-24T18:18:19.179Z,12.10
2023-04-24T18:20:47.032Z,12.10
2023-04-24T18:23:14.894Z,12.10
2023-04-24T18:25:42.296Z,12.10
2023-04-24T18:28:09.970Z,12.10
2023-04-24T18:30:38.339Z,12.10
2023-04-24T18:33:07.225Z,12.10
2023-04-24T18:35:34.868Z,12.10
2023-04-24T18:38:02.815Z,12.00
2023-04-24T18:40:30.644Z,12.00
2023-04-24T18:42:58.700Z,12.00
2023-04-24T18:45:26.823Z,12.00
2023-04-24T18:47:54.652Z,12.00
2023-04-24T18:50:22.977Z,12.00
2023-04-24T18:52:50.736Z,11.90
2023-04-24T18:55:18.362Z,11.90
2023-04-24T18:57:45.456Z,11.90
2023-04-24T19:00:13.670Z,11.90
2023-04-24T19:02:40.936Z,11.90
2023-04-24T19:05:09.053Z,11.90
2023-04-24T19:07:36.693Z,11.90
2023-04-24T19:10:06.718Z,11.80
2023-04-24T19:12:34.737Z,11.90
2023-04-24T19:15:03.426Z,11.80
2023-04-24T19:17:32.596Z,11.90
2023-04-24T19:20:02.925Z,11.90
2023-04-24T19:22:31.996Z,11.90
2023-04-24T19:24:59.911Z,11.90
2023-04-24T19:27:27.380Z,11.80
2023-04-24T19:29:57.935Z,11.80
2023-04-24T19:32:26.169Z,11.80
2023-04-24T19:34:53.771Z,11.80
2023-04-24T19:37:21.087Z,11.80
2023-04-24T19:39:48.836Z,11.80
2023-04-24T19:42:16.088Z,11.80
2023-04-24T19:44:43.627Z,11.80
2023-04-24T19:47:11.129Z,11.80
2023-04-24T19:49:38.935Z,11.70
2023-04-24T19:52:06.132Z,11.70
2023-04-24T19:54:33.778Z,11.70
2023-04-24T19:57:01.807Z,11.70
2023-04-24T19:59:29.427Z,11.60
2023-04-24T20:01:57.211Z,11.60
2023-04-24T20:04:24.712Z,11.60
2023-04-24T20:06:52.891Z,11.60
2023-04-24T20:09:20.498Z,11.50
2023-04-24T20:11:51.321Z,11.50
2023-04-24T20:14:18.413Z,11.50
2023-04-24T20:16:45.909Z,11.50
2023-04-24T20:19:13.408Z,11.50
2023-04-24T20:21:40.610Z,11.50
2023-04-24T20:24:09.160Z,11.50
2023-04-24T20:26:36.859Z,11.50
2023-04-24T20:29:05.200Z,11.50
2023-04-24T20:31:32.382Z,11.50
2023-04-24T20:33:59.488Z,11.50
2023-04-24T20:36:27.265Z,11.40
2023-04-24T20:38:54.326Z,11.40
2023-04-24T20:41:21.460Z,11.40
2023-04-24T20:43:48.529Z,11.40
2023-04-24T20:46:15.911Z,11.40
2023-04-24T20:48:42.978Z,11.40
2023-04-24T20:51:09.952Z,11.30
2023-04-24T20:53:36.971Z,11.30
2023-04-24T20:56:03.977Z,11.30
2023-04-24T20:58:31.098Z,11.30
2023-04-24T21:00:58.267Z,11.30
2023-04-24T21:03:25.362Z,11.20
2023-04-24T21:05:52.390Z,11.20
2023-04-24T21:08:19.407Z,11.20
2023-04-24T21:10:46.389Z,11.20
2023-04-24T21:13:13.394Z,11.20
2023-04-24T21:15:40.485Z,11.20
2023-04-24T21:18:07.729Z,11.20
2023-04-24T21:20:34.725Z,11.20
2023-04-24T21:23:01.687Z,11.20
2023-04-24T21:25:29.075Z,11.20
2023-04-24T21:27:58.293Z,11.20
2023-04-24T21:30:25.507Z,11.20
2023-04-24T21:32:53.089Z,11.20
2023-04-24T21:35:20.641Z,11.20
2023-04-24T21:37:47.779Z,11.20
2023-04-24T21:40:16.096Z,11.20
2023-04-24T21:42:43.608Z,11.20
2023-04-24T21:45:11.172Z,11.10
2023-04-24T21:47:38.240Z,11.20
2023-04-24T21:50:06.107Z,11.10
2023-04-24T21:52:33.136Z,11.10
2023-04-24T21:55:00.188Z,11.10
2023-04-24T21:57:27.278Z,11.10
2023-04-24T21:59:54.480Z,11.10
2023-04-24T22:02:21.808Z,11.10
2023-04-24T22:04:50.582Z,11.10
2023-04-24T22:07:17.676Z,11.10
2023-04-24T22:09:44.723Z,11.10
2023-04-24T22:12:11.796Z,11.10
2023-04-24T22:14:39.088Z,11.10
2023-04-24T22:17:06.046Z,11.10
2023-04-24T22:19:33.020Z,11.10
2023-04-24T22:22:00.263Z,11.10
2023-04-24T22:24:27.350Z,11.10
2023-04-24T22:26:54.326Z,11.10
2023-04-24T22:29:21.757Z,11.00
2023-04-24T22:31:49.282Z,11.00
2023-04-24T22:34:17.216Z,11.00
2023-04-24T22:36:44.272Z,11.00
2023-04-24T22:39:15.883Z,11.00
2023-04-24T22:41:43.363Z,11.00
2023-04-24T22:44:11.471Z,11.00
2023-04-24T22:46:38.587Z,11.00
2023-04-24T22:49:05.705Z,11.00
2023-04-24T22:51:35.460Z,10.90
2023-04-24T22:54:04.556Z,10.90
2023-04-24T22:56:32.239Z,10.90
2023-04-24T22:58:59.491Z,10.90
2023-04-24T23:01:29.910Z,10.90
2023-04-24T23:03:57.115Z,10.80
2023-04-24T23:06:24.334Z,10.80
2023-04-24T23:08:51.339Z,10.80
2023-04-24T23:11:18.477Z,10.80
2023-04-24T23:13:45.594Z,10.80
2023-04-24T23:16:12.679Z,10.80
2023-04-24T23:18:39.742Z,10.80
2023-04-24T23:21:06.921Z,10.80
2023-04-24T23:23:34.025Z,10.80
2023-04-24T23:26:01.640Z,10.80
2023-04-24T23:28:28.667Z,10.80
2023-04-24T23:30:55.636Z,10.80
2023-04-24T23:33:22.619Z,10.80
2023-04-24T23:35:49.926Z,10.80
2023-04-24T23:38:16.889Z,10.80
2023-04-24T23:40:43.938Z,10.70
2023-04-24T23:43:10.918Z,10.70
2023-04-24T23:45:37.935Z,10.70
2023-04-24T23:48:05.217Z,10.70
2023-04-24T23:50:32.302Z,10.70
2023-04-24T23:52:59.447Z,10.70
2023-04-24T23:55:26.489Z,10.70
2023-04-24T23:57:53.904Z,10.70
